createdAt,value
2018-06-23T00:01:34.695Z,12.10
2018-06-23T00:04:03.628Z,12.20
2018-06-23T00:09:01.000Z,12.30
2018-06-23T00:11:29.968Z,12.20
2018-06-23T00:13:58.867Z,12.10
2018-06-23T00:18:56.226Z,11.90
2018-06-23T00:21:25.136Z,11.80
2018-06-23T00:26:27.845Z,11.90
2018-06-23T00:28:56.736Z,11.80
2018-06-23T00:31:26.124Z,11.70
2018-06-23T00:33:55.167Z,11.80
2018-06-23T00:36:24.117Z,11.90
2018-06-23T00:38:53.042Z,11.90
2018-06-23T00:41:21.972Z,12.00
2018-06-23T00:43:50.956Z,12.00
2018-06-23T00:46:19.893Z,12.00
2018-06-23T00:48:48.815Z,12.00
2018-06-23T00:51:17.726Z,12.00
2018-06-23T00:53:46.691Z,11.60
2018-06-23T00:56:15.594Z,11.30
2018-06-23T00:58:55.644Z,11.30
2018-06-23T01:01:24.879Z,11.30
2018-06-23T01:06:22.301Z,11.30
2018-06-23T01:08:51.199Z,11.10
2018-06-23T01:11:20.158Z,11.10
2018-06-23T01:13:49.054Z,11.20
2018-06-23T01:16:18.054Z,11.30
2018-06-23T01:18:46.932Z,11.30
2018-06-23T01:21:15.953Z,11.30
2018-06-23T01:23:44.884Z,11.30
2018-06-23T01:26:13.785Z,11.30
2018-06-23T01:31:11.216Z,11.20
2018-06-23T01:33:40.099Z,10.50
2018-06-23T01:36:09.024Z,10.60
2018-06-23T01:38:37.960Z,10.60
2018-06-23T01:41:06.856Z,10.60
2018-06-23T01:43:35.755Z,10.60
2018-06-23T01:46:04.724Z,10.70
2018-06-23T01:48:33.660Z,10.80
2018-06-23T01:51:02.557Z,10.90
2018-06-23T01:53:31.465Z,10.70
2018-06-23T02:00:57.473Z,10.10
2018-06-23T02:03:26.374Z,10.20
2018-06-23T02:05:55.247Z,10.10
2018-06-23T02:08:24.090Z,10.20
2018-06-23T02:13:21.528Z,10.20
2018-06-23T02:15:55.779Z,10.10
2018-06-23T02:21:03.629Z,9.90
2018-06-23T02:23:37.729Z,9.40
2018-06-23T02:26:11.911Z,9.30
2018-06-23T02:31:19.663Z,9.60
2018-06-23T02:33:53.662Z,9.60
2018-06-23T02:36:22.528Z,9.60
2018-06-23T02:38:51.449Z,9.60
2018-06-23T02:41:20.469Z,9.30
2018-06-23T02:43:49.384Z,9.40
2018-06-23T02:46:18.283Z,9.50
2018-06-23T02:48:47.164Z,9.60
2018-06-23T02:51:16.164Z,9.70
2018-06-23T02:53:45.065Z,9.70
2018-06-23T02:58:42.446Z,9.80
2018-06-23T03:06:08.426Z,9.90
2018-06-23T03:08:37.353Z,9.70
2018-06-23T03:11:06.272Z,9.70
2018-06-23T03:13:35.152Z,9.70
2018-06-23T03:16:04.070Z,9.70
2018-06-23T03:18:32.967Z,9.60
2018-06-23T03:21:01.861Z,9.60
2018-06-23T03:23:30.769Z,9.90
2018-06-23T03:25:59.639Z,9.90
2018-06-23T03:28:28.563Z,10.20
2018-06-23T03:30:57.445Z,10.20
2018-06-23T03:33:26.304Z,10.30
2018-06-23T03:35:55.222Z,10.30
2018-06-23T03:38:24.119Z,10.40
2018-06-23T03:40:53.004Z,10.40
2018-06-23T03:43:21.921Z,10.40
2018-06-23T03:45:50.862Z,10.50
2018-06-23T03:48:19.689Z,10.50
2018-06-23T03:50:48.657Z,10.40
2018-06-23T03:53:17.546Z,10.40
2018-06-23T03:55:46.467Z,10.20
2018-06-23T03:58:15.368Z,10.20
2018-06-23T04:00:49.601Z,9.90
2018-06-23T04:03:18.521Z,9.90
2018-06-23T04:05:48.390Z,10.00
2018-06-23T04:08:17.726Z,10.10
2018-06-23T04:10:46.811Z,10.10
2018-06-23T04:13:15.997Z,10.10
2018-06-23T04:20:41.912Z,10.10
2018-06-23T04:23:10.784Z,10.10
2018-06-23T04:25:39.793Z,10.20
2018-06-23T04:28:08.706Z,10.30
2018-06-23T04:30:37.595Z,10.30
2018-06-23T04:33:06.537Z,10.30
2018-06-23T04:35:35.439Z,10.30
2018-06-23T04:38:04.372Z,10.30
2018-06-23T04:40:33.297Z,10.30
2018-06-23T04:43:02.179Z,10.10
2018-06-23T04:45:31.130Z,9.90
2018-06-23T04:48:00.033Z,10.00
2018-06-23T04:52:57.776Z,10.20
2018-06-23T04:55:26.775Z,10.10
2018-06-23T04:57:55.697Z,10.00
2018-06-23T05:00:27.092Z,10.00
2018-06-23T05:02:57.007Z,9.80
2018-06-23T05:05:26.330Z,9.80
2018-06-23T05:07:55.168Z,9.70
2018-06-23T05:10:24.060Z,9.60
2018-06-23T05:12:52.923Z,9.60
2018-06-23T05:15:21.805Z,9.60
2018-06-23T05:17:50.728Z,9.70
2018-06-23T05:20:19.667Z,9.90
2018-06-23T05:22:48.648Z,10.00
2018-06-23T05:25:17.613Z,10.10
2018-06-23T05:27:46.473Z,10.30
2018-06-23T05:30:15.435Z,10.20
2018-06-23T05:32:44.307Z,10.30
2018-06-23T05:35:13.210Z,10.30
2018-06-23T05:37:42.207Z,10.40
2018-06-23T05:40:11.126Z,10.30
2018-06-23T05:42:39.957Z,10.20
2018-06-23T05:45:08.875Z,10.10
2018-06-23T05:47:37.745Z,10.10
2018-06-23T05:50:06.640Z,10.10
2018-06-23T05:52:35.734Z,10.20
2018-06-23T05:55:05.016Z,10.30
2018-06-23T05:57:34.320Z,10.40
2018-06-23T06:00:03.351Z,10.50
2018-06-23T06:02:32.217Z,10.60
2018-06-23T06:05:01.209Z,10.70
2018-06-23T06:07:30.202Z,10.80
2018-06-23T06:09:59.101Z,10.70
2018-06-23T06:12:28.038Z,10.70
2018-06-23T06:17:27.718Z,10.80
2018-06-23T06:19:57.620Z,10.80
2018-06-23T06:22:30.707Z,10.90
2018-06-23T06:24:59.682Z,11.00
2018-06-23T06:27:28.762Z,11.20
2018-06-23T06:29:58.364Z,11.30
2018-06-23T06:32:27.767Z,11.50
2018-06-23T06:37:25.486Z,11.90
2018-06-23T06:39:54.645Z,12.00
2018-06-23T06:42:23.834Z,12.10
2018-06-23T06:44:52.743Z,12.20
2018-06-23T06:47:21.659Z,12.30
2018-06-23T06:49:50.565Z,12.40
2018-06-23T06:52:19.443Z,12.50
2018-06-23T06:54:48.342Z,12.50
2018-06-23T06:59:45.649Z,12.70
2018-06-23T07:04:42.991Z,12.90
2018-06-23T07:07:11.982Z,13.00
2018-06-23T07:09:40.813Z,13.20
2018-06-23T07:12:09.671Z,13.30
2018-06-23T07:14:38.587Z,13.50
2018-06-23T07:19:36.772Z,13.80
2018-06-23T07:24:34.188Z,14.00
2018-06-23T07:27:03.099Z,14.00
2018-06-23T07:29:32.039Z,14.10
2018-06-23T07:32:01.416Z,14.20
2018-06-23T07:34:30.611Z,14.10
2018-06-23T07:36:59.843Z,14.20
2018-06-23T07:39:29.126Z,14.20
2018-06-23T07:41:58.252Z,14.10
2018-06-23T07:44:27.426Z,14.30
2018-06-23T07:46:56.652Z,14.40
2018-06-23T07:49:25.810Z,14.50
2018-06-23T07:51:55.011Z,14.50
2018-06-23T07:54:24.410Z,14.70
2018-06-23T07:56:53.615Z,14.70
2018-06-23T07:59:22.805Z,14.80
2018-06-23T08:01:52.005Z,14.90
2018-06-23T08:04:21.130Z,14.90
2018-06-23T08:06:50.382Z,15.00
2018-06-23T08:14:16.696Z,15.40
2018-06-23T08:16:45.588Z,15.50
2018-06-23T08:19:14.488Z,15.60
2018-06-23T08:21:43.604Z,15.80
2018-06-23T08:24:12.803Z,15.90
2018-06-23T08:26:42.103Z,15.90
2018-06-23T08:29:11.159Z,15.90
2018-06-23T08:31:40.558Z,16.00
2018-06-23T08:34:09.824Z,16.00
2018-06-23T08:36:39.344Z,16.20
2018-06-23T08:39:09.005Z,16.20
2018-06-23T08:41:38.320Z,16.40
2018-06-23T08:44:07.526Z,16.50
2018-06-23T08:46:36.663Z,16.50
2018-06-23T08:49:05.675Z,16.60
2018-06-23T08:51:34.793Z,16.60
2018-06-23T08:54:04.005Z,16.50
2018-06-23T08:59:04.307Z,16.50
2018-06-23T09:01:33.205Z,16.50
2018-06-23T09:04:02.650Z,16.70
2018-06-23T09:06:31.603Z,16.70
2018-06-23T09:09:00.952Z,16.80
2018-06-23T09:11:30.076Z,16.90
2018-06-23T09:13:59.504Z,17.10
2018-06-23T09:16:28.392Z,17.20
2018-06-23T09:18:57.655Z,17.10
2018-06-23T09:21:27.056Z,17.20
2018-06-23T09:23:56.362Z,17.30
2018-06-23T09:26:25.509Z,17.30
2018-06-23T09:31:23.340Z,17.60
2018-06-23T09:33:52.289Z,17.70
2018-06-23T09:36:21.657Z,17.80
2018-06-23T09:38:50.718Z,18.00
2018-06-23T09:41:20.117Z,18.10
2018-06-23T09:43:49.483Z,18.10
2018-06-23T09:46:20.232Z,18.20
2018-06-23T09:48:49.212Z,18.20
2018-06-23T09:53:47.684Z,18.20
2018-06-23T09:56:17.217Z,18.30
2018-06-23T09:58:46.556Z,18.40
2018-06-23T10:01:15.922Z,18.50
2018-06-23T10:03:45.510Z,18.60
2018-06-23T10:06:14.945Z,18.60
2018-06-23T10:08:44.117Z,18.60
2018-06-23T10:11:13.469Z,18.70
2018-06-23T10:13:42.837Z,18.80
2018-06-23T10:16:12.138Z,18.90
2018-06-23T10:18:41.621Z,19.00
2018-06-23T10:26:08.462Z,19.20
2018-06-23T10:28:37.578Z,19.30
2018-06-23T10:31:07.815Z,19.40
2018-06-23T10:36:05.965Z,19.50
2018-06-23T10:38:35.286Z,19.60
2018-06-23T10:41:04.420Z,19.80
2018-06-23T10:43:33.640Z,20.00
2018-06-23T10:46:02.817Z,20.30
2018-06-23T10:48:32.036Z,20.40
2018-06-23T10:51:01.294Z,20.70
2018-06-23T10:53:30.594Z,20.90
2018-06-23T10:58:28.788Z,21.20
2018-06-23T11:00:58.083Z,21.30
2018-06-23T11:08:25.257Z,21.80
2018-06-23T11:10:54.356Z,21.90
2018-06-23T11:13:23.492Z,22.00
2018-06-23T11:15:52.669Z,21.90
2018-06-23T11:18:21.838Z,22.00
2018-06-23T11:20:51.058Z,22.10
2018-06-23T11:23:20.258Z,21.90
2018-06-23T11:25:49.376Z,21.90
2018-06-23T11:28:18.643Z,22.00
2018-06-23T11:30:47.798Z,22.10
2018-06-23T11:33:17.036Z,22.10
2018-06-23T11:35:46.268Z,22.10
2018-06-23T11:38:15.566Z,22.20
2018-06-23T11:40:44.859Z,22.40
2018-06-23T11:43:14.233Z,22.60
2018-06-23T11:45:43.639Z,22.60
2018-06-23T11:48:12.835Z,22.60
2018-06-23T11:50:42.152Z,22.70
2018-06-23T11:53:11.525Z,22.70
2018-06-23T11:55:40.732Z,22.80
2018-06-23T11:58:09.733Z,23.00
2018-06-23T12:00:39.057Z,23.00
2018-06-23T12:03:08.068Z,23.00
2018-06-23T12:05:37.071Z,23.00
2018-06-23T12:08:06.437Z,22.90
2018-06-23T12:10:35.713Z,22.80
2018-06-23T12:13:04.737Z,22.80
2018-06-23T12:15:34.248Z,22.80
2018-06-23T12:18:03.440Z,22.90
2018-06-23T12:20:32.744Z,22.90
2018-06-23T12:23:01.720Z,23.00
2018-06-23T12:25:31.159Z,23.10
2018-06-23T12:28:00.421Z,23.20
2018-06-23T12:30:29.639Z,23.10
2018-06-23T12:32:58.500Z,23.10
2018-06-23T12:35:27.596Z,23.10
2018-06-23T12:37:56.464Z,23.20
2018-06-23T12:42:54.529Z,23.40
2018-06-23T12:45:23.447Z,23.40
2018-06-23T12:47:52.881Z,23.50
2018-06-23T12:50:22.283Z,23.50
2018-06-23T12:52:51.563Z,23.40
2018-06-23T12:55:20.967Z,23.40
2018-06-23T12:57:49.822Z,23.30
2018-06-23T13:02:47.295Z,23.60
2018-06-23T13:07:44.998Z,23.50
2018-06-23T13:10:14.013Z,23.60
2018-06-23T13:12:43.459Z,23.70
2018-06-23T13:15:12.431Z,23.80
2018-06-23T13:17:41.676Z,23.80
2018-06-23T13:22:39.571Z,24.00
2018-06-23T13:25:08.473Z,24.10
2018-06-23T13:27:37.404Z,24.20
2018-06-23T13:30:06.874Z,24.10
2018-06-23T13:32:36.146Z,24.20
2018-06-23T13:35:05.596Z,24.20
2018-06-23T13:37:34.756Z,24.10
2018-06-23T13:40:03.768Z,23.80
2018-06-23T13:42:33.068Z,23.60
2018-06-23T13:45:01.955Z,23.60
2018-06-23T13:47:31.436Z,23.70
2018-06-23T13:50:00.456Z,23.90
2018-06-23T13:52:29.656Z,24.10
2018-06-23T13:54:59.020Z,24.20
2018-06-23T13:57:27.915Z,24.30
2018-06-23T13:59:57.215Z,24.40
2018-06-23T14:02:26.507Z,24.60
2018-06-23T14:04:55.783Z,24.50
2018-06-23T14:09:53.681Z,24.40
2018-06-23T14:17:20.053Z,24.50
2018-06-23T14:19:49.332Z,24.40
2018-06-23T14:24:47.303Z,24.10
2018-06-23T14:27:16.640Z,24.20
2018-06-23T14:29:46.151Z,24.20
2018-06-23T14:32:15.249Z,24.10
2018-06-23T14:34:44.362Z,24.10
2018-06-23T14:37:13.381Z,24.10
2018-06-23T14:39:42.459Z,23.90
2018-06-23T14:42:11.784Z,23.80
2018-06-23T14:44:41.156Z,23.50
2018-06-23T14:47:10.038Z,23.40
2018-06-23T14:49:39.386Z,23.30
2018-06-23T14:52:08.643Z,23.40
2018-06-23T14:54:37.798Z,23.20
2018-06-23T14:57:07.132Z,23.00
2018-06-23T14:59:36.048Z,22.90
2018-06-23T15:02:05.325Z,22.80
2018-06-23T15:04:34.470Z,22.80
2018-06-23T15:09:42.884Z,22.50
2018-06-23T15:12:23.114Z,22.40
2018-06-23T15:14:52.381Z,22.30
2018-06-23T15:17:21.649Z,22.30
2018-06-23T15:19:50.989Z,22.20
2018-06-23T15:22:20.259Z,22.10
2018-06-23T15:24:49.329Z,22.10
2018-06-23T15:27:18.541Z,22.00
2018-06-23T15:32:16.450Z,21.90
2018-06-23T15:34:45.844Z,21.80
2018-06-23T15:37:15.164Z,21.80
2018-06-23T15:39:44.172Z,21.70
2018-06-23T15:42:13.436Z,21.70
2018-06-23T15:44:42.759Z,21.60
2018-06-23T15:47:11.995Z,21.70
2018-06-23T15:49:41.070Z,21.80
2018-06-23T15:52:10.431Z,21.80
2018-06-23T15:54:39.520Z,22.00
2018-06-23T15:57:08.839Z,22.00
2018-06-23T15:59:38.140Z,22.10
2018-06-23T16:02:07.400Z,21.90
2018-06-23T16:04:36.497Z,21.90
2018-06-23T16:09:34.511Z,21.80
2018-06-23T16:12:03.381Z,21.70
2018-06-23T16:17:01.206Z,21.60
2018-06-23T16:19:30.505Z,21.60
2018-06-23T16:21:59.684Z,21.50
2018-06-23T16:24:28.955Z,21.40
2018-06-23T16:29:26.554Z,21.20
2018-06-23T16:31:55.867Z,21.20
2018-06-23T16:34:25.088Z,21.20
2018-06-23T16:36:54.457Z,21.20
2018-06-23T16:39:23.840Z,21.20
2018-06-23T16:41:53.206Z,21.10
2018-06-23T16:44:22.401Z,21.20
2018-06-23T16:46:51.566Z,21.20
2018-06-23T16:49:20.728Z,21.20
2018-06-23T16:54:18.824Z,21.10
2018-06-23T16:56:48.087Z,21.10
2018-06-23T16:59:17.469Z,21.00
2018-06-23T17:01:46.700Z,21.00
2018-06-23T17:04:15.830Z,20.90
2018-06-23T17:06:45.009Z,20.70
2018-06-23T17:09:14.159Z,20.70
2018-06-23T17:11:43.451Z,20.70
2018-06-23T17:14:12.623Z,20.70
2018-06-23T17:16:41.855Z,20.60
2018-06-23T17:19:11.122Z,20.70
2018-06-23T17:21:40.410Z,20.60
2018-06-23T17:24:09.431Z,20.60
2018-06-23T17:26:38.605Z,20.50
2018-06-23T17:29:07.754Z,20.50
2018-06-23T17:31:37.205Z,20.40
2018-06-23T17:34:06.369Z,20.40
2018-06-23T17:39:06.349Z,20.30
2018-06-23T17:41:35.687Z,20.40
2018-06-23T17:44:04.925Z,20.30
2018-06-23T17:46:34.629Z,20.20
2018-06-23T17:49:03.828Z,20.10
2018-06-23T17:51:33.140Z,20.00
2018-06-23T17:54:02.325Z,20.10
2018-06-23T17:56:31.652Z,19.90
2018-06-23T17:59:00.917Z,19.90
2018-06-23T18:01:30.125Z,19.90
2018-06-23T18:03:59.421Z,19.90
2018-06-23T18:06:28.706Z,19.80
2018-06-23T18:08:58.024Z,19.80
2018-06-23T18:11:28.387Z,19.60
2018-06-23T18:13:57.597Z,19.50
2018-06-23T18:16:26.864Z,19.50
2018-06-23T18:18:56.066Z,19.50
2018-06-23T18:21:25.262Z,19.60
2018-06-23T18:23:54.415Z,19.60
2018-06-23T18:28:52.203Z,19.60
2018-06-23T18:31:21.423Z,19.60
2018-06-23T18:33:50.668Z,19.50
2018-06-23T18:36:19.808Z,19.50
2018-06-23T18:38:49.066Z,19.50
2018-06-23T18:41:18.226Z,19.50
2018-06-23T18:43:47.184Z,19.40
2018-06-23T18:46:16.075Z,19.30
2018-06-23T18:48:45.556Z,19.30
2018-06-23T18:51:14.771Z,19.30
2018-06-23T18:53:43.959Z,19.30
2018-06-23T18:58:41.965Z,19.30
2018-06-23T19:01:11.256Z,19.20
2018-06-23T19:03:40.556Z,19.20
2018-06-23T19:06:09.865Z,19.10
2018-06-23T19:08:39.097Z,19.20
2018-06-23T19:11:08.345Z,19.10
2018-06-23T19:16:06.246Z,19.10
2018-06-23T19:18:35.620Z,19.00
2018-06-23T19:23:33.636Z,18.90
2018-06-23T19:26:02.573Z,18.90
2018-06-23T19:28:31.719Z,18.90
2018-06-23T19:31:00.944Z,18.90
2018-06-23T19:33:30.216Z,18.90
2018-06-23T19:35:59.239Z,18.80
2018-06-23T19:38:28.291Z,18.60
2018-06-23T19:40:57.608Z,18.60
2018-06-23T19:43:26.862Z,18.60
2018-06-23T19:45:56.135Z,18.60
2018-06-23T19:48:25.373Z,18.60
2018-06-23T19:53:23.261Z,18.50
2018-06-23T19:55:52.583Z,18.50
2018-06-23T19:58:21.877Z,18.40
2018-06-23T20:00:51.271Z,18.30
2018-06-23T20:03:20.559Z,18.30
2018-06-23T20:08:18.476Z,18.10
2018-06-23T20:13:16.204Z,18.00
2018-06-23T20:15:45.440Z,18.10
2018-06-23T20:18:14.736Z,18.10
2018-06-23T20:20:44.034Z,18.00
2018-06-23T20:23:13.334Z,18.00
2018-06-23T20:25:42.647Z,18.00
2018-06-23T20:28:11.856Z,18.00
2018-06-23T20:30:40.819Z,18.00
2018-06-23T20:33:09.989Z,18.00
2018-06-23T20:35:39.267Z,17.90
2018-06-23T20:38:08.495Z,17.80
2018-06-23T20:43:07.066Z,17.80
2018-06-23T20:45:36.304Z,17.70
2018-06-23T20:48:05.563Z,17.70
2018-06-23T20:50:34.762Z,17.70
2018-06-23T20:53:04.095Z,17.70
2018-06-23T20:55:33.411Z,17.70
2018-06-23T20:58:02.505Z,17.60
2018-06-23T21:00:31.943Z,17.60
2018-06-23T21:03:01.229Z,17.60
2018-06-23T21:05:30.429Z,17.60
2018-06-23T21:07:59.850Z,17.60
2018-06-23T21:10:39.675Z,17.60
2018-06-23T21:13:09.089Z,17.60
2018-06-23T21:15:38.367Z,17.60
2018-06-23T21:18:07.923Z,17.50
2018-06-23T21:20:37.268Z,17.40
2018-06-23T21:23:06.435Z,17.40
2018-06-23T21:28:04.610Z,17.30
2018-06-23T21:30:33.878Z,17.40
2018-06-23T21:33:03.125Z,17.30
2018-06-23T21:35:32.397Z,17.30
2018-06-23T21:38:01.757Z,17.30
2018-06-23T21:40:31.164Z,17.20
2018-06-23T21:43:00.426Z,17.10
2018-06-23T21:47:58.508Z,17.10
2018-06-23T21:50:27.830Z,17.10
2018-06-23T21:52:57.100Z,17.10
2018-06-23T22:00:40.195Z,17.20
2018-06-23T22:03:10.784Z,17.00
2018-06-23T22:08:09.642Z,17.00
2018-06-23T22:10:39.013Z,17.00
2018-06-23T22:13:08.325Z,17.00
2018-06-23T22:15:37.617Z,17.00
2018-06-23T22:18:06.943Z,16.90
2018-06-23T22:20:36.254Z,16.80
2018-06-23T22:23:05.601Z,16.80
2018-06-23T22:25:34.844Z,16.80
2018-06-23T22:28:04.142Z,16.70
2018-06-23T22:30:33.524Z,16.80
2018-06-23T22:33:02.897Z,16.80
2018-06-23T22:35:32.239Z,16.70
2018-06-23T22:38:01.424Z,16.60
2018-06-23T22:40:30.637Z,16.60
2018-06-23T22:42:59.812Z,16.60
2018-06-23T22:45:29.015Z,16.70
2018-06-23T22:47:58.304Z,16.60
2018-06-23T22:50:27.497Z,16.70
2018-06-23T22:52:56.717Z,16.60
2018-06-23T22:55:25.932Z,16.40
2018-06-23T22:57:55.296Z,16.40
2018-06-23T23:00:24.602Z,16.40
2018-06-23T23:02:53.778Z,16.40
2018-06-23T23:05:23.094Z,16.40
2018-06-23T23:07:52.279Z,16.40
2018-06-23T23:12:50.193Z,16.40
2018-06-23T23:15:19.556Z,16.40
2018-06-23T23:20:17.440Z,16.40
2018-06-23T23:25:15.319Z,16.40
2018-06-23T23:30:13.463Z,16.30
2018-06-23T23:32:42.691Z,16.30
2018-06-23T23:35:11.851Z,16.30
2018-06-23T23:37:41.127Z,16.20
2018-06-23T23:40:10.414Z,16.20
2018-06-23T23:42:39.727Z,16.10
2018-06-23T23:45:09.033Z,16.20
2018-06-23T23:47:38.193Z,16.20
2018-06-23T23:50:07.536Z,16.20
2018-06-23T23:52:36.959Z,16.20
2018-06-23T23:55:06.424Z,16.20
2018-06-23T23:57:35.605Z,16.20
